OOL weather

Gold Coast Airport
Gold Coast, Queensland, Australia

Public forecast

Using degrees Celsius for public forecast. Weather courtesy of forecast.io.

METAR (pilot weather report)

Retrieved 2018/12/15 04:30 UTC (0 seconds ago):

YBCG 150430Z AUTO 02013KT 9999 // BKN028 OVC059 28/23 Q1008

TAF (pilot weather forecast)

Forecast is more than 12 hours old.

Retrieved 2018/12/14 12:00 UTC (16 hours ago):

TAF YBCG 141132Z 1412/1512 01014KT 9999 -SHRA BKN015 BKN025 OVC050 FM150000 02018KT 9999 -SHRA SCT025 BKN040 BKN100 TEMPO 1412/1424 3000 SHRA OVC010 INTER 1500/1506 3000 SHRA BKN012 TEMPO 1506/1512 3000 SHRA BKN012 PROB30 TEMPO 1412/1414 VRB30G45KT 2000 TSRA BKN010 SCT030CB PROB30 TEMPO 1502/1512 VRB30G45KT 2000 TSRA BKN010 SCT030CB